Time;durP1;ratioP1;P1;durP2;ratioP2;P2;SDS_P1;SDS_P2;PMS_P1;PMS_P2;Temp;Humidity;BMP_temperature;BMP_pressure;BME280_temperature;BME280_humidity;BME280_pressure;Samples;Min_cycle;Max_cycle;Signal;HPM_P1;HPM_P2
2022/06/13 00:00:30;;;;;;;;;;;;;;;-144.47;40.36;53142.09;4991282;28;20447;-69
2022/06/13 00:02:55;;;;;;;;;;;;;;;-144.47;39.93;53165.94;5000837;28;19913;-71
2022/06/13 00:05:20;;;;;;;;;;;;;;;-144.47;40.41;53163.97;4990755;28;19916;-68
2022/06/13 00:07:46;;;;;;;;;;;;;;;-144.47;40.42;53161.97;4988765;28;20344;-70
2022/06/13 00:10:12;;;;;;;;;;;;;;;-144.47;40.30;53146.09;4987272;28;19913;-70
2022/06/13 00:12:38;;;;;;;;;;;;;;;-144.47;40.55;53203.69;4988373;28;19910;-68
2022/06/13 00:15:03;;;;;;;;;;;;;;;-144.47;40.47;53160.00;4988788;28;19931;-69
2022/06/13 00:17:28;;;;;;;;;;;;;;;-144.47;40.51;53165.94;4988571;28;20274;-69
2022/06/13 00:19:54;;;;;;;;;;;;;;;-144.47;40.65;53126.22;4973135;28;20420;-69
2022/06/13 00:22:19;;;;;;;;;;;;;;;-144.47;40.73;53187.78;5007993;28;20255;-70
2022/06/13 00:24:45;;;;;;;;;;;;;;;-144.47;40.91;53158.00;5000130;28;19917;-69
2022/06/13 00:27:10;;;;;;;;;;;;;;;-144.47;40.93;53161.97;4989635;28;19909;-70
2022/06/13 00:29:36;;;;;;;;;;;;;;;-144.47;41.18;53197.72;4986554;28;20295;-70
2022/06/13 00:32:02;;;;;;;;;;;;;;;-144.47;41.25;53177.88;4988458;28;19909;-72
2022/06/13 00:34:27;;;;;;;;;;;;;;;-144.47;41.24;53161.97;5003793;28;20000;-68
2022/06/13 00:36:52;;;;;;;;;;;;;;;-144.47;41.32;53183.81;4995661;28;20298;-71
2022/06/13 00:39:17;;;;;;;;;;;;;;;-144.47;41.45;53165.94;5030005;22;20425;-69
2022/06/13 00:41:44;;;;;;;;;;;;;;;-144.47;41.57;53154.03;5029849;28;19913;-69
2022/06/13 00:44:26;;;;;;;;;;;;;;;-144.47;41.75;53185.81;5029289;28;20038;-70
2022/06/13 00:46:51;;;;;;;;;;;;;;;-144.47;41.99;53163.97;5030214;28;19920;-71
2022/06/13 00:49:19;;;;;;;;;;;;;;;-144.47;42.25;53185.81;5028368;28;19909;-70
2022/06/13 00:52:05;;;;;;;;;;;;;;;-144.47;42.55;53161.97;5028115;28;19955;-69
2022/06/13 00:54:31;;;;;;;;;;;;;;;-144.47;42.71;53128.22;5013594;28;20318;-69
2022/06/13 00:56:57;;;;;;;;;;;;;;;-144.47;42.82;53181.84;5029589;28;20493;-67
2022/06/13 00:59:24;;;;;;;;;;;;;;;-144.47;43.22;53150.06;5028764;28;19912;-68
2022/06/13 01:01:49;;;;;;;;;;;;;;;-144.47;43.37;53175.88;5012356;28;20335;-68
2022/06/13 01:04:15;;;;;;;;;;;;;;;-144.47;43.67;53173.88;5019301;28;19967;-66
2022/06/13 01:06:46;;;;;;;;;;;;;;;-144.47;43.88;53203.69;5022698;28;20398;-68
2022/06/13 01:09:13;;;;;;;;;;;;;;;-144.47;44.01;53161.97;5011665;28;20299;-66
2022/06/13 01:11:51;;;;;;;;;;;;;;;-144.47;44.08;53156.00;5022794;28;20375;-69
2022/06/13 01:14:28;;;;;;;;;;;;;;;-144.47;44.15;53193.75;5027165;28;20389;-68
2022/06/13 01:17:11;;;;;;;;;;;;;;;-144.47;44.26;53179.84;5027308;28;19979;-68
2022/06/13 01:19:46;;;;;;;;;;;;;;;-144.47;44.24;53183.81;5028601;28;19913;-68
2022/06/13 01:22:30;;;;;;;;;;;;;;;-144.47;44.47;53201.69;5016932;28;20453;-68
2022/06/13 01:25:18;;;;;;;;;;;;;;;-144.47;44.59;53175.88;5028861;28;19917;-67
2022/06/13 01:28:02;;;;;;;;;;;;;;;-144.47;44.87;53167.94;5028133;28;20417;-69
2022/06/13 01:30:46;;;;;;;;;;;;;;;-144.47;45.03;53179.84;5016216;28;19909;-68
2022/06/13 01:33:19;;;;;;;;;;;;;;;-144.47;45.14;53193.75;5029192;28;20477;-68
2022/06/13 01:35:54;;;;;;;;;;;;;;;-144.47;45.39;53187.78;5029154;28;19909;-66
2022/06/13 01:38:19;;;;;;;;;;;;;;;-144.47;45.76;53193.75;5029199;28;19954;-68
2022/06/13 01:40:53;;;;;;;;;;;;;;;-144.47;46.15;53203.69;5028131;28;20003;-68
2022/06/13 01:43:21;;;;;;;;;;;;;;;-144.47;46.43;53181.84;5016631;28;20000;-69
2022/06/13 01:46:04;;;;;;;;;;;;;;;-144.47;46.90;53181.84;5029007;28;19909;-67
2022/06/13 01:48:45;;;;;;;;;;;;;;;-144.47;47.44;53185.81;5023124;28;19952;-67
2022/06/13 01:51:10;;;;;;;;;;;;;;;-144.47;47.76;53219.56;5028572;28;19999;-69
2022/06/13 01:53:38;;;;;;;;;;;;;;;-144.47;48.06;53173.88;5028970;28;20374;-69
2022/06/13 01:56:13;;;;;;;;;;;;;;;-144.47;48.33;53197.72;5028548;28;19913;-68
2022/06/13 01:58:45;;;;;;;;;;;;;;;-144.47;48.69;53221.56;5027896;28;19909;-67
2022/06/13 02:01:25;;;;;;;;;;;;;;;-144.47;48.83;53201.69;5029259;28;19913;-67
2022/06/13 02:03:53;;;;;;;;;;;;;;;-144.47;49.21;53195.75;5030247;28;19974;-66
2022/06/13 02:06:22;;;;;;;;;;;;;;;-144.47;49.58;53175.88;5029426;28;19909;-68
2022/06/13 02:08:54;;;;;;;;;;;;;;;-144.47;49.93;53185.81;5027922;28;19916;-68
2022/06/13 02:11:31;;;;;;;;;;;;;;;-144.47;50.03;53223.56;5019273;28;19909;-68
2022/06/13 02:14:04;;;;;;;;;;;;;;;-144.47;50.28;53213.63;5028211;28;19912;-69
2022/06/13 02:16:36;;;;;;;;;;;;;;;-144.47;50.53;53193.75;5028165;28;19976;-68
2022/06/13 02:19:04;;;;;;;;;;;;;;;-144.47;50.78;53221.56;4995438;28;20419;-68
2022/06/13 02:21:37;;;;;;;;;;;;;;;-144.47;51.14;53203.69;5030760;28;19957;-66
2022/06/13 02:24:04;;;;;;;;;;;;;;;-144.47;51.45;53231.50;5026720;28;20011;-69
2022/06/13 02:26:32;;;;;;;;;;;;;;;-144.47;51.59;53217.59;5028107;28;19916;-68
2022/06/13 02:29:02;;;;;;;;;;;;;;;-144.47;51.72;53223.56;5029386;28;20003;-68
2022/06/13 02:31:32;;;;;;;;;;;;;;;-144.47;52.03;53233.47;5032271;28;19909;-68
2022/06/13 02:33:57;;;;;;;;;;;;;;;-144.47;52.14;53191.78;5032404;28;20333;-67
2022/06/13 02:36:22;;;;;;;;;;;;;;;-144.47;52.24;53235.47;5031934;28;20420;-69
2022/06/13 02:38:58;;;;;;;;;;;;;;;-144.47;52.42;53187.78;5032609;28;19917;-67
2022/06/13 02:41:26;;;;;;;;;;;;;;;-144.47;52.22;53213.63;5030203;28;19923;-68
2022/06/13 02:43:51;;;;;;;;;;;;;;;-144.47;52.37;53229.50;5031104;28;20370;-69
2022/06/13 02:46:23;;;;;;;;;;;;;;;-144.47;52.39;53183.81;5032154;28;19909;-69
2022/06/13 02:48:52;;;;;;;;;;;;;;;-144.47;52.36;53223.56;5031698;28;19912;-70
2022/06/13 02:51:20;;;;;;;;;;;;;;;-144.47;52.63;53225.53;5031369;28;19959;-69
2022/06/13 02:53:58;;;;;;;;;;;;;;;-144.47;52.69;53225.53;5031597;28;19966;-69
2022/06/13 02:57:23;;;;;;;;;;;;;;;-144.47;53.07;53237.44;5031560;28;19916;-69
2022/06/13 02:59:48;;;;;;;;;;;;;;;-144.47;53.29;53207.66;5030294;28;19909;-68
2022/06/13 03:02:16;;;;;;;;;;;;;;;-144.47;53.28;53201.69;5013608;28;19948;-67
2022/06/13 03:04:45;;;;;;;;;;;;;;;-144.47;53.38;53249.38;5031360;28;19909;-67
2022/06/13 03:07:13;;;;;;;;;;;;;;;-144.47;53.36;53173.88;5031446;28;20305;-67
2022/06/13 03:09:47;;;;;;;;;;;;;;;-144.47;53.66;53245.41;5022848;28;19909;-69
2022/06/13 03:12:16;;;;;;;;;;;;;;;-144.47;53.73;53233.47;5027371;28;19951;-66
2022/06/13 03:14:45;;;;;;;;;;;;;;;-144.47;53.73;53245.41;5030547;28;19909;-68
2022/06/13 03:17:29;;;;;;;;;;;;;;;-144.47;53.83;53221.56;5030232;28;20294;-67
2022/06/13 03:19:57;;;;;;;;;;;;;;;-144.47;53.93;53227.53;5030056;28;19909;-68
2022/06/13 03:22:28;;;;;;;;;;;;;;;-144.47;54.10;53215.59;5030903;28;20326;-69
2022/06/13 03:25:07;;;;;;;;;;;;;;;-144.47;54.16;53251.34;5030998;28;19984;-65
2022/06/13 03:27:38;;;;;;;;;;;;;;;-144.47;54.28;53213.63;5031536;28;19916;-67
2022/06/13 03:30:05;;;;;;;;;;;;;;;-144.47;54.25;53233.47;5029861;28;20007;-67
2022/06/13 03:32:34;;;;;;;;;;;;;;;-144.47;54.30;53211.63;5032038;28;19909;-70
2022/06/13 03:35:01;;;;;;;;;;;;;;;-144.47;54.45;53257.31;5030923;28;20282;-69
2022/06/13 03:37:31;;;;;;;;;;;;;;;-144.47;54.38;53223.56;5031505;28;19924;-71
2022/06/13 03:40:06;;;;;;;;;;;;;;;-144.47;54.45;53229.50;5028774;28;19955;-69
2022/06/13 03:42:37;;;;;;;;;;;;;;;-144.47;54.60;53257.31;5030476;28;20439;-69
2022/06/13 03:45:21;;;;;;;;;;;;;;;-144.47;54.65;53211.63;5030314;28;19913;-69
2022/06/13 03:47:52;;;;;;;;;;;;;;;-144.47;54.82;53227.53;5024908;28;20283;-68
2022/06/13 03:50:20;;;;;;;;;;;;;;;-144.47;54.96;53233.47;5029630;28;19913;-69
2022/06/13 03:52:49;;;;;;;;;;;;;;;-144.47;55.16;53213.63;5030210;28;19913;-69
2022/06/13 03:55:17;;;;;;;;;;;;;;;-144.47;55.18;53235.47;5030389;28;19909;-68
2022/06/13 03:57:47;;;;;;;;;;;;;;;-144.47;55.35;53231.50;5030698;28;20393;-69
2022/06/13 04:00:19;;;;;;;;;;;;;;;-144.47;55.47;53251.34;5027484;28;19909;-69
2022/06/13 04:02:44;;;;;;;;;;;;;;;-144.47;55.51;53201.69;5030252;28;20480;-69
2022/06/13 04:05:18;;;;;;;;;;;;;;;-144.47;55.40;53221.56;5029941;28;20025;-66
2022/06/13 04:07:44;;;;;;;;;;;;;;;-144.47;55.37;53233.47;5030523;28;19913;-67
2022/06/13 04:10:12;;;;;;;;;;;;;;;-144.47;55.31;53265.25;5029025;28;20294;-68
2022/06/13 04:12:53;;;;;;;;;;;;;;;-144.47;55.10;53233.47;5030222;28;19912;-66
2022/06/13 04:15:24;;;;;;;;;;;;;;;-144.47;54.70;53247.38;5029688;28;20035;-65
2022/06/13 04:17:52;;;;;;;;;;;;;;;-144.47;54.73;53199.72;5030582;28;19909;-67
2022/06/13 04:20:35;;;;;;;;;;;;;;;-144.47;54.58;53205.66;5028809;28;19917;-70
2022/06/13 04:23:14;;;;;;;;;;;;;;;-144.47;54.45;53247.38;5030179;28;19913;-69
2022/06/13 04:25:52;;;;;;;;;;;;;;;-144.47;54.50;53213.63;5012540;28;20327;-68
2022/06/13 04:28:24;;;;;;;;;;;;;;;-144.47;54.17;53211.63;5029722;28;19913;-69
2022/06/13 04:30:51;;;;;;;;;;;;;;;-144.47;54.00;53233.47;5028576;28;20386;-68
2022/06/13 04:33:23;;;;;;;;;;;;;;;-144.47;53.67;53221.56;5029943;28;19915;-67
2022/06/13 04:35:49;;;;;;;;;;;;;;;-144.47;53.41;53197.72;5029880;28;20378;-67
2022/06/13 04:38:16;;;;;;;;;;;;;;;-144.47;53.13;53221.56;5029705;28;19917;-68
2022/06/13 04:40:44;;;;;;;;;;;;;;;-144.47;52.89;53225.53;5028841;28;19917;-66
2022/06/13 04:43:11;;;;;;;;;;;;;;;-144.47;52.89;53253.34;5027598;28;19923;-68
2022/06/13 04:45:45;;;;;;;;;;;;;;;-144.47;52.42;53235.47;5029113;28;20291;-68
2022/06/13 04:48:11;;;;;;;;;;;;;;;-144.47;52.02;53189.78;5016548;28;19909;-69
2022/06/13 04:50:39;;;;;;;;;;;;;;;-144.47;51.53;53225.53;5028500;28;19909;-70
2022/06/13 04:53:06;;;;;;;;;;;;;;;-144.47;51.68;53205.66;5029072;28;19909;-67
2022/06/13 04:55:35;;;;;;;;;;;;;;;-144.47;51.26;53227.53;5028711;28;20336;-66
2022/06/13 04:58:00;;;;;;;;;;;;;;;-144.47;51.15;53173.88;5015609;28;19916;-68
2022/06/13 05:00:26;;;;;;;;;;;;;;;-144.47;50.75;53221.56;5021189;28;19920;-70
2022/06/13 05:02:53;;;;;;;;;;;;;;;-144.47;50.68;53239.44;5011999;28;19909;-70
2022/06/13 05:05:29;;;;;;;;;;;;;;;-144.47;50.68;53245.41;5028848;28;19920;-66
2022/06/13 05:07:54;;;;;;;;;;;;;;;-144.47;49.75;53209.66;5029140;28;19909;-68
2022/06/13 05:10:21;;;;;;;;;;;;;;;-144.47;49.20;53161.97;5016346;28;19909;-69
2022/06/13 05:12:47;;;;;;;;;;;;;;;-144.47;48.93;53269.22;5029418;28;19994;-69
2022/06/13 05:15:12;;;;;;;;;;;;;;;-144.47;48.56;53199.72;5028380;28;19990;-67
2022/06/13 05:17:40;;;;;;;;;;;;;;;-144.47;48.72;53229.50;5029521;28;20007;-67
2022/06/13 05:20:12;;;;;;;;;;;;;;;-144.47;47.49;53213.63;5009792;28;19909;-67
2022/06/13 05:22:40;;;;;;;;;;;;;;;-144.47;47.16;53199.72;5028827;28;20011;-70
2022/06/13 05:25:24;;;;;;;;;;;;;;;-144.47;46.92;53195.75;5009343;28;19975;-66
2022/06/13 05:27:49;;;;;;;;;;;;;;;-144.47;46.82;53189.78;5028797;28;19909;-66
2022/06/13 05:30:15;;;;;;;;;;;;;;;-144.47;46.63;53183.81;5027082;28;19982;-66
2022/06/13 05:32:41;;;;;;;;;;;;;;;-144.47;46.12;53219.56;5028379;28;19983;-67
2022/06/13 05:35:07;;;;;;;;;;;;;;;-144.47;46.04;53175.88;5028235;28;20264;-69
2022/06/13 05:37:32;;;;;;;;;;;;;;;-144.47;45.86;53197.72;5011595;28;19916;-70
2022/06/13 05:39:58;;;;;;;;;;;;;;;-144.47;45.86;53173.88;5027554;28;19920;-67
2022/06/13 05:42:23;;;;;;;;;;;;;;;-144.47;45.76;53175.88;5011342;28;20374;-69
2022/06/13 05:44:48;;;;;;;;;;;;;;;-144.47;45.50;53211.63;5028218;28;19932;-67
2022/06/13 05:47:17;;;;;;;;;;;;;;;-144.47;45.54;53167.94;5028703;28;20417;-66
2022/06/13 05:49:42;;;;;;;;;;;;;;;-144.47;45.42;53189.78;5027176;28;19919;-67
2022/06/13 05:52:07;;;;;;;;;;;;;;;-144.47;44.73;53209.66;5027326;28;19957;-68
2022/06/13 05:54:33;;;;;;;;;;;;;;;-144.47;44.27;53158.00;5028605;28;19909;-68
2022/06/13 05:56:58;;;;;;;;;;;;;;;-144.47;44.21;53165.94;5028545;28;20036;-68
2022/06/13 05:59:23;;;;;;;;;;;;;;;-144.47;44.30;53211.63;5026105;28;20347;-68
2022/06/13 06:01:48;;;;;;;;;;;;;;;-144.47;44.38;53177.88;5028337;28;20419;-69
2022/06/13 06:04:13;;;;;;;;;;;;;;;-144.47;44.04;53181.84;5031001;28;19941;-67
2022/06/13 06:06:39;;;;;;;;;;;;;;;-144.47;44.21;53189.78;5032103;28;19913;-68
2022/06/13 06:09:05;;;;;;;;;;;;;;;-144.47;44.29;53209.66;5010275;28;19909;-68
2022/06/13 06:11:32;;;;;;;;;;;;;;;-144.47;43.99;53185.81;5023578;28;19909;-69
2022/06/13 06:13:58;;;;;;;;;;;;;;;-144.47;44.19;53152.03;5025206;28;20130;-67
2022/06/13 06:16:23;;;;;;;;;;;;;;;-144.47;44.31;53160.00;5013602;28;19920;-66
2022/06/13 06:18:49;;;;;;;;;;;;;;;-144.47;44.58;53193.75;5030192;28;19999;-67
2022/06/13 06:21:15;;;;;;;;;;;;;;;-144.47;44.86;53154.03;5027380;28;20020;-69
2022/06/13 06:23:40;;;;;;;;;;;;;;;-144.47;44.93;53175.88;5024854;28;19909;-68
2022/06/13 06:26:07;;;;;;;;;;;;;;;-144.47;44.93;53173.88;5029516;28;19980;-67
2022/06/13 06:28:33;;;;;;;;;;;;;;;-144.47;44.40;53185.81;5031106;28;19909;-66
2022/06/13 06:30:59;;;;;;;;;;;;;;;-144.47;44.36;53197.72;5032128;28;19963;-66
2022/06/13 06:33:25;;;;;;;;;;;;;;;-144.47;44.11;53189.78;5031870;28;19932;-67
2022/06/13 06:35:51;;;;;;;;;;;;;;;-144.47;43.73;53165.94;5031800;28;19909;-68
2022/06/13 06:38:17;;;;;;;;;;;;;;;-144.47;43.55;53197.72;5027552;28;19913;-68
2022/06/13 06:40:42;;;;;;;;;;;;;;;-144.47;43.05;53163.97;5021725;22;20069;-67
2022/06/13 06:43:09;;;;;;;;;;;;;;;-144.47;43.07;53205.66;5014010;28;20303;-70
2022/06/13 06:45:35;;;;;;;;;;;;;;;-144.47;42.78;53169.91;5001821;28;20386;-68
2022/06/13 06:48:00;;;;;;;;;;;;;;;-144.47;42.53;53169.91;5023136;28;19993;-67
2022/06/13 06:50:26;;;;;;;;;;;;;;;-144.47;42.62;53185.81;5005719;28;20000;-68
2022/06/13 06:52:52;;;;;;;;;;;;;;;-144.47;42.14;53163.97;4996553;28;19914;-68
2022/06/13 07:00:47;;;;;;;;;;;;;;;-144.47;41.60;53171.91;4989164;28;20445;-67
2022/06/13 07:03:12;;;;;;;;;;;;;;;-144.47;41.88;53173.88;4992947;28;19913;-69
2022/06/13 07:05:37;;;;;;;;;;;;;;;-144.47;41.83;53175.88;4992796;28;19952;-69
2022/06/13 07:08:03;;;;;;;;;;;;;;;-144.47;41.85;53173.88;4993014;28;19909;-69
2022/06/13 07:10:28;;;;;;;;;;;;;;;-144.47;41.70;53175.88;4984944;28;19921;-68
2022/06/13 07:12:57;;;;;;;;;;;;;;;-144.47;41.70;53161.97;5000429;28;19909;-77
2022/06/13 07:15:22;;;;;;;;;;;;;;;-144.47;41.38;53142.09;4977245;28;19909;-68
2022/06/13 07:17:47;;;;;;;;;;;;;;;-144.47;41.91;53158.00;5002088;28;19921;-67
2022/06/13 07:20:13;;;;;;;;;;;;;;;-144.47;41.66;53179.84;4992247;28;20451;-70
2022/06/13 07:22:45;;;;;;;;;;;;;;;-144.47;41.60;53169.91;4992959;28;20360;-69
2022/06/13 07:25:13;;;;;;;;;;;;;;;-144.47;41.45;53124.22;4992327;28;19920;-70
2022/06/13 07:27:38;;;;;;;;;;;;;;;-144.47;41.55;53160.00;4993244;28;19910;-67
2022/06/13 07:30:04;;;;;;;;;;;;;;;-144.47;41.85;53128.22;4991329;28;19909;-69
2022/06/13 07:32:29;;;;;;;;;;;;;;;-144.47;41.56;53148.06;4986946;28;19909;-67
2022/06/13 07:34:54;;;;;;;;;;;;;;;-144.47;41.55;53146.09;4992307;28;19964;-71
2022/06/13 07:40:06;;;;;;;;;;;;;;;-144.47;40.98;53156.00;4991751;28;19944;-69
2022/06/13 07:42:35;;;;;;;;;;;;;;;-144.47;40.60;53126.22;4976399;28;19921;-70
2022/06/13 07:45:00;;;;;;;;;;;;;;;-144.47;40.56;53144.09;4973896;28;19909;-68
2022/06/13 07:47:26;;;;;;;;;;;;;;;-144.47;40.59;53130.19;4987981;28;19910;-70
2022/06/13 07:49:51;;;;;;;;;;;;;;;-144.47;40.81;53146.09;4991075;28;19945;-66
2022/06/13 07:52:16;;;;;;;;;;;;;;;-144.47;41.15;53165.94;5000739;28;19909;-70
2022/06/13 07:54:42;;;;;;;;;;;;;;;-144.47;40.86;53142.09;4991725;28;19917;-66
2022/06/13 07:57:08;;;;;;;;;;;;;;;-144.47;40.85;53161.97;4974339;28;20218;-69
2022/06/13 07:59:33;;;;;;;;;;;;;;;-144.47;40.44;53154.03;4990437;28;19918;-68
2022/06/13 08:01:58;;;;;;;;;;;;;;;-144.47;40.16;53154.03;4992245;28;19918;-68
2022/06/13 08:04:24;;;;;;;;;;;;;;;-144.47;40.68;53173.88;4991753;28;20314;-68
2022/06/13 08:06:49;;;;;;;;;;;;;;;-144.47;40.53;53156.00;4991609;28;19943;-66
2022/06/13 08:09:14;;;;;;;;;;;;;;;-144.47;40.24;53138.13;4972187;28;19910;-69
2022/06/13 08:11:43;;;;;;;;;;;;;;;-144.47;39.99;53140.13;4992004;28;19957;-70
2022/06/13 08:14:09;;;;;;;;;;;;;;;-144.47;40.35;53158.00;4991197;28;20011;-70
2022/06/13 08:16:34;;;;;;;;;;;;;;;-144.47;39.74;53156.00;5004297;28;19936;-68
2022/06/13 08:19:01;;;;;;;;;;;;;;;-144.47;39.69;53183.81;4978247;28;19918;-69
2022/06/13 08:21:26;;;;;;;;;;;;;;;-144.47;39.76;53120.25;4991720;28;19913;-68
2022/06/13 08:23:52;;;;;;;;;;;;;;;-144.47;40.13;53154.03;4991603;28;20416;-65
2022/06/13 08:26:17;;;;;;;;;;;;;;;-144.47;40.06;53140.13;4990433;28;20382;-68
2022/06/13 08:28:42;;;;;;;;;;;;;;;-144.47;40.32;53146.09;4998870;28;19948;-67
2022/06/13 08:31:09;;;;;;;;;;;;;;;-144.47;40.57;53158.00;5000063;28;19909;-69
2022/06/13 08:33:35;;;;;;;;;;;;;;;-144.47;40.65;53154.03;4995984;28;20032;-66
2022/06/13 08:36:00;;;;;;;;;;;;;;;-144.47;40.51;53154.03;4991003;28;20478;-66
2022/06/13 08:38:26;;;;;;;;;;;;;;;-144.47;40.85;53138.13;4991111;28;19931;-68
2022/06/13 08:41:09;;;;;;;;;;;;;;;-144.47;40.13;53142.09;4983203;28;19962;-68
2022/06/13 08:43:53;;;;;;;;;;;;;;;-144.47;39.75;53154.03;4990944;28;19920;-69
2022/06/13 08:46:30;;;;;;;;;;;;;;;-144.47;39.80;53158.00;4993563;28;20040;-70
2022/06/13 08:49:01;;;;;;;;;;;;;;;-144.47;39.40;53167.94;4991128;28;19917;-66
2022/06/13 08:51:45;;;;;;;;;;;;;;;-144.47;39.56;53138.13;4993478;28;20005;-67
2022/06/13 08:54:12;;;;;;;;;;;;;;;-144.47;38.99;53130.19;4978344;28;19932;-70
2022/06/13 08:56:38;;;;;;;;;;;;;;;-144.47;38.82;53150.06;4985856;28;19933;-66
2022/06/13 08:59:22;;;;;;;;;;;;;;;-144.47;38.50;53154.03;4971409;28;19917;-67
2022/06/13 09:01:50;;;;;;;;;;;;;;;-144.47;38.96;53116.28;4993152;28;19924;-66
2022/06/13 09:04:20;;;;;;;;;;;;;;;-144.47;39.17;53169.91;4989084;28;19925;-69
2022/06/13 09:06:47;;;;;;;;;;;;;;;-144.47;38.86;53161.97;4990613;28;19963;-67
2022/06/13 09:09:18;;;;;;;;;;;;;;;-144.47;38.75;53185.81;4984031;28;19921;-67
2022/06/13 09:11:52;;;;;;;;;;;;;;;-144.47;38.44;53126.22;4995115;28;20387;-68
2022/06/13 09:14:17;;;;;;;;;;;;;;;-144.47;38.72;53124.22;4991479;28;19928;-66
2022/06/13 09:16:45;;;;;;;;;;;;;;;-144.47;38.59;53134.16;4991272;28;19917;-66
2022/06/13 09:19:33;;;;;;;;;;;;;;;-144.47;38.42;53104.38;4992564;28;20524;-66
2022/06/13 09:22:06;;;;;;;;;;;;;;;-144.47;38.11;53140.13;4990055;28;19948;-66
2022/06/13 09:24:38;;;;;;;;;;;;;;;-144.47;37.95;53140.13;4991588;28;19949;-67
2022/06/13 09:27:07;;;;;;;;;;;;;;;-144.47;38.17;53130.19;4989924;28;19921;-69
2022/06/13 09:29:41;;;;;;;;;;;;;;;-144.47;38.02;53161.97;4989902;28;19913;-67
2022/06/13 09:32:17;;;;;;;;;;;;;;;-144.47;38.18;53126.22;4992700;28;19993;-67
2022/06/13 09:34:44;;;;;;;;;;;;;;;-144.47;38.62;53120.25;4986573;28;19948;-65
2022/06/13 09:37:09;;;;;;;;;;;;;;;-144.47;38.52;53183.81;4993662;28;19968;-67
2022/06/13 09:39:35;;;;;;;;;;;;;;;-144.47;38.96;53114.31;4973563;28;19944;-67
2022/06/13 09:42:00;;;;;;;;;;;;;;;-144.47;38.75;53154.03;4990298;28;19925;-67
2022/06/13 09:44:53;;;;;;;;;;;;;;;-144.47;39.26;53152.03;4994270;28;19932;-66
2022/06/13 09:47:18;;;;;;;;;;;;;;;-144.47;39.39;53142.09;4994156;28;19960;-65
2022/06/13 09:49:52;;;;;;;;;;;;;;;-144.47;39.59;53169.91;4997530;28;19957;-65
2022/06/13 09:52:17;;;;;;;;;;;;;;;-144.47;39.79;53160.00;4994182;28;21038;-66
2022/06/13 09:54:43;;;;;;;;;;;;;;;-144.47;40.12;53175.88;4999319;28;19924;-68
2022/06/13 09:57:23;;;;;;;;;;;;;;;-144.47;40.09;53150.06;4991965;28;19924;-67
2022/06/13 10:00:03;;;;;;;;;;;;;;;-144.47;40.27;53122.25;4984931;28;19944;-65
2022/06/13 10:02:47;;;;;;;;;;;;;;;-144.47;40.23;53134.16;4990585;28;20319;-67
2022/06/13 10:05:13;;;;;;;;;;;;;;;-144.47;40.23;53193.75;4986485;28;19921;-66
2022/06/13 10:08:04;;;;;;;;;;;;;;;-144.47;40.55;53183.81;4999318;28;19933;-69
2022/06/13 10:10:41;;;;;;;;;;;;;;;-144.47;40.60;53167.94;4996071;28;19916;-68
2022/06/13 10:13:14;;;;;;;;;;;;;;;-144.47;40.78;53158.00;4994472;28;19909;-65
2022/06/13 10:15:46;;;;;;;;;;;;;;;-144.47;41.00;53146.09;4990735;28;20015;-67
2022/06/13 10:18:31;;;;;;;;;;;;;;;-144.47;41.37;53154.03;4994961;28;20213;-68
2022/06/13 10:20:57;;;;;;;;;;;;;;;-144.47;41.69;53130.19;4994877;28;19913;-69
2022/06/13 10:23:27;;;;;;;;;;;;;;;-144.47;41.83;53199.72;4997098;28;19937;-67
2022/06/13 10:26:10;;;;;;;;;;;;;;;-144.47;41.77;53169.91;4999420;28;19909;-64
2022/06/13 10:28:48;;;;;;;;;;;;;;;-144.47;42.57;53181.84;4996613;28;19949;-67
2022/06/13 10:31:19;;;;;;;;;;;;;;;-144.47;44.17;53169.91;4994264;28;20383;-67
2022/06/13 10:33:44;;;;;;;;;;;;;;;-144.47;45.60;53165.94;4997245;28;20018;-66
2022/06/13 10:36:16;;;;;;;;;;;;;;;-144.47;47.19;53183.81;4999033;28;20004;-68
2022/06/13 10:38:59;;;;;;;;;;;;;;;-144.47;47.92;53191.78;4995093;28;19922;-69
2022/06/13 10:41:26;;;;;;;;;;;;;;;-144.47;52.14;53205.66;4997621;28;19921;-68
2022/06/13 10:43:51;;;;;;;;;;;;;;;-144.47;58.78;53191.78;4974882;28;19974;-68
2022/06/13 10:46:17;;;;;;;;;;;;;;;-144.47;61.86;53237.44;4995006;28;19917;-66
2022/06/13 10:48:48;;;;;;;;;;;;;;;-144.47;64.05;53265.25;4995305;28;20021;-67
2022/06/13 10:51:14;;;;;;;;;;;;;;;-144.47;66.08;53229.50;4996268;28;19928;-67
2022/06/13 10:53:41;;;;;;;;;;;;;;;-144.47;67.38;53249.38;4997071;28;20364;-66
2022/06/13 10:56:15;;;;;;;;;;;;;;;-144.47;66.58;53219.56;4993151;28;19972;-68
2022/06/13 10:58:43;;;;;;;;;;;;;;;-144.47;68.40;53257.31;4994273;28;19917;-66
2022/06/13 11:01:08;;;;;;;;;;;;;;;-144.47;71.00;53253.34;4993637;28;19971;-68
2022/06/13 11:03:34;;;;;;;;;;;;;;;-144.47;72.40;53271.22;4976591;28;19917;-66
2022/06/13 11:06:06;;;;;;;;;;;;;;;-144.47;72.33;53251.34;4993194;28;20276;-65
2022/06/13 11:08:32;;;;;;;;;;;;;;;-144.47;70.31;53291.09;4995734;28;19956;-66
2022/06/13 11:11:05;;;;;;;;;;;;;;;-144.47;68.52;53247.38;4993686;28;19917;-67
2022/06/13 11:13:36;;;;;;;;;;;;;;;-144.47;69.12;53243.41;4975201;28;19921;-67
2022/06/13 11:24:35;;;;;;;;;;;;;;;-144.47;64.17;53257.31;4994183;28;19916;-69
2022/06/13 11:29:47;;;;;;;;;;;;;;;-144.47;63.28;53225.53;4995239;28;20361;-70
2022/06/13 11:32:20;;;;;;;;;;;;;;;-144.47;59.77;53267.25;4992931;28;20016;-67
2022/06/13 11:34:45;;;;;;;;;;;;;;;-144.47;62.13;53243.41;4977849;28;20337;-67
2022/06/13 11:37:23;;;;;;;;;;;;;;;-144.47;61.98;53259.31;4992356;28;19910;-65
2022/06/13 11:39:49;;;;;;;;;;;;;;;-144.47;60.54;53269.22;4978849;28;20104;-67
2022/06/13 11:42:14;;;;;;;;;;;;;;;-144.47;60.05;53273.22;4997802;28;19914;-65
2022/06/13 11:44:45;;;;;;;;;;;;;;;-144.47;56.02;53239.44;5000518;28;19936;-67
2022/06/13 11:47:11;;;;;;;;;;;;;;;-144.47;56.87;53279.16;4985306;28;20383;-65
2022/06/13 11:49:42;;;;;;;;;;;;;;;-144.47;56.91;53243.41;4995270;28;19941;-69
2022/06/13 11:52:10;;;;;;;;;;;;;;;-144.47;55.49;53267.25;5004014;28;19916;-70
2022/06/13 11:54:54;;;;;;;;;;;;;;;-144.47;54.80;53261.28;4992022;28;19909;-68
2022/06/13 11:57:34;;;;;;;;;;;;;;;-144.47;53.86;53219.56;4994071;28;19913;-69
2022/06/13 12:00:00;;;;;;;;;;;;;;;-144.47;54.78;53259.31;4986639;28;19937;-66
2022/06/13 12:02:28;;;;;;;;;;;;;;;-144.47;51.69;53241.44;4973827;28;19957;-67
2022/06/13 12:04:54;;;;;;;;;;;;;;;-144.47;53.01;53221.56;4979276;28;19913;-67
2022/06/13 12:07:26;;;;;;;;;;;;;;;-144.47;53.04;53227.53;5001525;28;19964;-69
2022/06/13 12:09:53;;;;;;;;;;;;;;;-144.47;52.97;53211.63;4999927;28;19913;-67
2022/06/13 12:12:18;;;;;;;;;;;;;;;-144.47;52.03;53243.41;5000350;28;20015;-69
2022/06/13 12:14:44;;;;;;;;;;;;;;;-144.47;50.91;53207.66;4995905;28;20059;-66
2022/06/13 12:17:17;;;;;;;;;;;;;;;-144.47;49.66;53203.69;5003522;28;19923;-71
2022/06/13 12:19:49;;;;;;;;;;;;;;;-144.47;50.35;53187.78;5004382;28;20295;-68
2022/06/13 12:22:17;;;;;;;;;;;;;;;-144.47;51.58;53233.47;4979103;28;19921;-69
2022/06/13 12:25:01;;;;;;;;;;;;;;;-144.47;50.70;53207.66;4975469;28;20064;-67
2022/06/13 12:27:47;;;;;;;;;;;;;;;-144.47;49.38;53223.56;4994502;28;19937;-68
2022/06/13 12:30:18;;;;;;;;;;;;;;;-144.47;48.31;53171.91;4991472;28;19909;-67
2022/06/13 12:32:46;;;;;;;;;;;;;;;-144.47;46.78;53199.72;5002463;28;19909;-68
2022/06/13 12:35:21;;;;;;;;;;;;;;;-144.47;46.73;53213.63;4990817;28;20398;-67
2022/06/13 12:37:52;;;;;;;;;;;;;;;-144.47;47.07;53219.56;4991709;28;20474;-68
2022/06/13 12:40:20;;;;;;;;;;;;;;;-144.47;43.43;53199.72;4989697;28;19945;-67
2022/06/13 12:43:05;;;;;;;;;;;;;;;-144.47;43.44;53177.88;5034216;22;19956;-68
2022/06/13 12:45:36;;;;;;;;;;;;;;;-144.47;41.43;53146.09;5016881;28;19936;-67
2022/06/13 12:48:01;;;;;;;;;;;;;;;-144.47;42.59;53161.97;5029371;28;20337;-66
2022/06/13 12:50:33;;;;;;;;;;;;;;;-144.47;43.07;53179.84;5026384;28;19913;-67
2022/06/13 12:53:17;;;;;;;;;;;;;;;-144.47;43.38;53148.06;5015873;28;19909;-65
2022/06/13 12:55:43;;;;;;;;;;;;;;;-144.47;43.96;53185.81;5007509;28;19909;-69
2022/06/13 12:58:26;;;;;;;;;;;;;;;-144.47;44.01;53205.66;5002580;28;19941;-67
2022/06/13 13:01:02;;;;;;;;;;;;;;;-144.47;41.43;53177.88;4988600;28;19924;-68